Terminal Aerodrome Forecast
Issued by NWS Blacksburg, VA

Current Version | Previous Version | Graphics & Text | Print | Product List | Glossary On
Versions: 1 2 3 4 5 6 7 8 9 10 11 12 13 14 15 16 17 18
000
FTUS41 KRNK 161149
TAFBLF
TAF
KBLF 161149Z 1612/1712 26016G26KT P6SM -RA OVC025
      TEMPO 1612/1616 4SM -SHRA BR OVC015
     FM161600 29010G20KT 4SM SHRA BR OVC008
     FM162000 31011G20KT P6SM OVC015
      TEMPO 1620/1621 2SM -SHRA OVC007
     FM162200 32010G18KT P6SM VCSH OVC015
     FM170000 32009KT P6SM OVC015=

USA.gov is the U.S. government's official web portal to all federal, state and local government web resources and services.